Time;durP1;ratioP1;P1;durP2;ratioP2;P2;SDS_P1;SDS_P2;PMS_P1;PMS_P2;Temp;Humidity;BMP_temperature;BMP_pressure;BME280_temperature;BME280_humidity;BME280_pressure;Samples;Min_cycle;Max_cycle;Signal;HPM_P1;HPM_P2
2022/06/30 00:01:41;;;;;;;6.45;4.57;;;;;;;20.36;61.30;99204.91;5038691;28;20056;-94
2022/06/30 00:04:06;;;;;;;6.13;4.50;;;;;;;20.38;61.47;99210.84;5022809;28;20063;-94
2022/06/30 00:06:32;;;;;;;6.47;4.40;;;;;;;20.27;61.63;99209.66;5039642;28;20040;-95
2022/06/30 00:08:58;;;;;;;6.95;4.47;;;;;;;20.32;61.80;99216.88;5039341;28;20021;-94
2022/06/30 00:11:23;;;;;;;6.85;4.70;;;;;;;20.26;61.54;99216.25;5038428;28;20048;-94
2022/06/30 00:13:49;;;;;;;7.53;4.70;;;;;;;20.21;61.87;99216.47;5039618;28;20530;-94
2022/06/30 00:16:14;;;;;;;9.27;4.38;;;;;;;20.16;61.91;99208.47;5023569;28;20028;-94
2022/06/30 00:18:40;;;;;;;6.13;4.47;;;;;;;20.19;61.49;99222.28;5039125;28;20086;-94
2022/06/30 00:21:05;;;;;;;9.50;4.68;;;;;;;20.34;60.93;99223.59;5022358;28;20048;-94
2022/06/30 00:23:31;;;;;;;8.52;4.75;;;;;;;20.25;61.27;99203.72;5038873;28;20017;-95
2022/06/30 00:25:57;;;;;;;8.35;4.80;;;;;;;20.24;61.05;99213.06;5039303;28;20013;-94
2022/06/30 00:28:22;;;;;;;9.95;4.88;;;;;;;20.29;60.82;99206.59;5038943;28;20036;-94
2022/06/30 00:30:48;;;;;;;8.05;4.80;;;;;;;20.31;61.18;99216.03;5022068;28;20024;-94
2022/06/30 00:33:14;;;;;;;11.73;4.78;;;;;;;20.24;61.48;99204.06;5022101;28;20056;-96
2022/06/30 00:35:39;;;;;;;7.28;4.20;;;;;;;20.21;61.56;99218.41;5021890;28;20025;-94
2022/06/30 00:38:05;;;;;;;7.13;4.03;;;;;;;20.09;61.24;99210.97;5021553;28;20120;-96
2022/06/30 00:40:35;;;;;;;8.05;3.97;;;;;;;19.94;61.18;99207.72;5024246;28;20097;-94
2022/06/30 00:43:01;;;;;;;8.00;4.10;;;;;;;19.87;61.37;99195.72;5023781;28;20037;-94
2022/06/30 00:45:26;;;;;;;6.53;3.85;;;;;;;19.84;61.48;99210.03;5023962;28;20079;-95
2022/06/30 00:47:52;;;;;;;5.65;4.07;;;;;;;19.94;61.32;99212.38;5023377;28;20112;-95
2022/06/30 00:50:18;;;;;;;7.47;4.28;;;;;;;19.98;61.28;99216.84;5023520;28;20029;-94
2022/06/30 00:52:43;;;;;;;11.45;4.28;;;;;;;19.90;60.68;99198.59;5022842;28;20025;-95
2022/06/30 00:55:09;;;;;;;8.90;3.65;;;;;;;20.01;60.16;99212.66;5040381;28;20028;-95
2022/06/30 00:57:34;;;;;;;4.30;3.80;;;;;;;19.96;60.88;99202.72;5022539;28;20021;-94
2022/06/30 01:00:00;;;;;;;11.02;4.00;;;;;;;19.87;61.15;99196.53;5021836;28;20029;-94
2022/06/30 01:02:26;;;;;;;6.97;4.13;;;;;;;19.89;61.68;99202.44;5038145;28;20033;-95
2022/06/30 01:04:52;;;;;;;7.60;3.92;;;;;;;19.88;61.61;99203.59;5022756;28;20060;-95
2022/06/30 01:07:18;;;;;;;9.52;4.13;;;;;;;19.75;62.20;99197.25;5021644;28;20056;-95
2022/06/30 01:12:42;;;;;;;5.25;4.10;;;;;;;19.74;62.64;99216.72;5040930;28;20112;-94
2022/06/30 01:15:09;;;;;;;7.00;4.43;;;;;;;19.63;62.60;99210.84;5039154;28;20031;-93
2022/06/30 01:17:35;;;;;;;5.80;4.45;;;;;;;19.71;62.41;99214.66;5037461;28;20055;-95
2022/06/30 01:20:01;;;;;;;7.15;4.10;;;;;;;19.55;62.70;99206.25;5036703;28;20123;-94
2022/06/30 01:22:26;;;;;;;9.00;4.47;;;;;;;19.54;63.05;99210.88;5021572;28;20024;-94
2022/06/30 01:24:52;;;;;;;9.23;4.60;;;;;;;19.51;62.64;99206.09;5037474;28;20124;-94
2022/06/30 01:27:20;;;;;;;9.30;4.55;;;;;;;19.51;62.52;99216.22;5020307;28;20025;-94
2022/06/30 01:29:47;;;;;;;9.75;4.18;;;;;;;19.62;62.10;99213.91;5021265;28;20025;-94
2022/06/30 01:32:13;;;;;;;9.70;4.38;;;;;;;19.49;62.46;99202.09;5038574;28;20036;-94
2022/06/30 01:34:39;;;;;;;7.05;4.10;;;;;;;19.56;62.38;99219.53;5054034;28;20569;-94
2022/06/30 01:37:05;;;;;;;7.80;4.15;;;;;;;19.55;63.04;99223.41;5038113;28;20033;-94
2022/06/30 01:39:30;;;;;;;8.05;4.38;;;;;;;19.39;62.93;99198.63;5036959;28;20025;-94
2022/06/30 01:41:56;;;;;;;7.07;3.92;;;;;;;19.49;62.78;99216.56;5038090;28;20556;-95
2022/06/30 01:44:22;;;;;;;6.47;4.93;;;;;;;19.45;62.93;99215.63;5036943;28;20415;-94
2022/06/30 01:46:48;;;;;;;10.35;4.70;;;;;;;19.30;63.19;99208.81;5037878;28;20025;-95
2022/06/30 01:49:14;;;;;;;6.80;4.63;;;;;;;19.34;63.00;99219.84;5020770;28;20051;-94
2022/06/30 01:51:40;;;;;;;6.88;4.60;;;;;;;19.18;63.23;99209.50;5054010;28;20514;-94
2022/06/30 01:54:08;;;;;;;8.85;4.50;;;;;;;19.34;63.17;99231.59;5037012;28;20033;-93
2022/06/30 01:56:57;;;;;;;8.07;4.35;;;;;;;19.41;62.65;99241.19;5037584;28;20463;-94
2022/06/30 01:59:22;;;;;;;11.05;3.90;;;;;;;19.43;60.82;99225.28;5004006;28;20034;-94
2022/06/30 02:01:48;;;;;;;4.40;3.13;;;;;;;19.61;58.71;99232.22;5015981;28;20462;-95
2022/06/30 02:06:58;;;;;;;4.60;3.50;;;;;;;19.64;58.19;99225.28;5018869;28;20040;-94
2022/06/30 02:09:24;;;;;;;6.60;3.45;;;;;;;19.67;57.94;99219.16;5032356;28;20515;-95
2022/06/30 02:12:44;;;;;;;6.55;3.55;;;;;;;19.72;57.20;99217.06;5015777;28;20029;-94
2022/06/30 02:14:36;;;;;;;8.43;4.00;;;;;;;19.60;59.09;99208.75;5031811;28;20112;-95
2022/06/30 02:17:01;;;;;;;6.53;3.50;;;;;;;19.55;59.23;99225.38;5031768;28;20415;-94
2022/06/30 02:19:27;;;;;;;6.28;4.32;;;;;;;19.44;60.35;99227.66;5015634;28;20048;-94
2022/06/30 02:21:56;;;;;;;8.98;4.57;;;;;;;19.38;61.83;99221.59;5014795;28;20029;-95
2022/06/30 02:24:23;;;;;;;15.23;4.57;;;;;;;19.10;61.39;99210.34;5031054;28;20095;-94
2022/06/30 02:26:48;;;;;;;12.18;3.85;;;;;;;19.13;62.24;99223.38;5015492;28;20474;-95
2022/06/30 02:29:14;;;;;;;5.95;4.07;;;;;;;19.13;61.32;99228.00;5032909;28;20076;-94
2022/06/30 02:31:39;;;;;;;5.90;3.55;;;;;;;19.01;61.03;99206.88;5037037;28;20106;-94
2022/06/30 02:34:05;;;;;;;10.95;4.63;;;;;;;18.99;61.99;99209.16;5019741;28;20052;-94
2022/06/30 02:36:30;;;;;;;6.05;3.70;;;;;;;19.00;61.49;99210.72;5020274;28;20029;-94
2022/06/30 02:38:56;;;;;;;5.55;3.85;;;;;;;19.03;61.51;99210.09;5053086;28;20032;-93
2022/06/30 02:41:23;;;;;;;7.90;4.00;;;;;;;18.94;61.73;99209.31;5020055;28;20029;-94
2022/06/30 02:43:49;;;;;;;7.57;4.07;;;;;;;19.09;61.33;99227.88;5036613;28;20033;-94
2022/06/30 02:46:15;;;;;;;8.93;4.05;;;;;;;19.10;60.84;99217.75;5053542;28;20395;-95
2022/06/30 02:48:41;;;;;;;6.22;4.00;;;;;;;19.01;60.50;99215.06;5019867;28;20032;-95
2022/06/30 02:51:07;;;;;;;7.05;3.78;;;;;;;18.94;60.32;99206.59;5036240;28;20029;-95
2022/06/30 02:53:32;;;;;;;5.72;3.75;;;;;;;19.14;60.12;99218.69;5019785;28;20069;-93
2022/06/30 02:55:59;;;;;;;10.85;4.10;;;;;;;19.15;59.34;99201.19;5036796;28;20025;-95
2022/06/30 02:58:29;;;;;;;11.77;4.30;;;;;;;19.13;59.76;99219.81;5036070;28;20025;-94
2022/06/30 03:00:54;;;;;;;5.28;4.00;;;;;;;19.22;59.04;99201.47;5052293;28;20114;-95
2022/06/30 03:03:20;;;;;;;12.18;4.30;;;;;;;19.35;58.37;99199.63;5036043;28;20045;-94
2022/06/30 03:05:47;;;;;;;7.32;3.80;;;;;;;19.41;58.14;99205.69;5036421;28;20055;-94
2022/06/30 03:08:12;;;;;;;5.85;3.80;;;;;;;19.44;57.92;99194.88;5035771;28;20407;-95
2022/06/30 03:10:38;;;;;;;9.38;3.30;;;;;;;19.48;57.17;99197.75;5019477;28;20035;-94
2022/06/30 03:13:03;;;;;;;14.82;4.22;;;;;;;19.63;57.32;99210.03;5020135;28;20021;-94
2022/06/30 03:15:30;;;;;;;5.13;3.72;;;;;;;19.67;57.15;99205.50;5036278;28;20410;-95
2022/06/30 03:17:57;;;;;;;15.70;4.72;;;;;;;19.46;60.67;99209.00;5052642;28;20103;-94
2022/06/30 03:20:25;;;;;;;8.10;4.13;;;;;;;19.26;61.97;99207.03;5052558;28;20037;-95
2022/06/30 03:22:51;;;;;;;8.35;4.35;;;;;;;19.09;62.06;99211.50;5052019;28;20037;-95
2022/06/30 03:25:17;;;;;;;9.10;4.00;;;;;;;19.04;62.30;99203.50;5036363;28;20056;-95
2022/06/30 03:27:43;;;;;;;8.10;4.40;;;;;;;18.94;62.71;99204.66;5036013;28;20050;-95
2022/06/30 03:30:09;;;;;;;7.63;4.63;;;;;;;18.84;62.96;99204.22;5035132;28;20029;-94
2022/06/30 03:32:35;;;;;;;10.45;4.50;;;;;;;18.88;62.66;99216.88;5036032;28;20049;-96
2022/06/30 03:35:01;;;;;;;7.72;4.10;;;;;;;18.76;63.06;99208.56;5037464;28;20036;-95
2022/06/30 03:37:27;;;;;;;6.95;4.28;;;;;;;18.73;62.79;99210.00;5039070;28;20029;-96
2022/06/30 03:39:53;;;;;;;9.60;4.25;;;;;;;18.86;63.01;99212.88;5039254;28;20033;-96
2022/06/30 03:42:18;;;;;;;9.35;4.57;;;;;;;18.83;61.77;99210.81;5022610;28;20040;-94
2022/06/30 03:44:45;;;;;;;4.88;3.88;;;;;;;18.90;61.37;99227.47;5041398;28;20055;-96
2022/06/30 03:47:13;;;;;;;12.18;4.72;;;;;;;18.87;62.32;99239.03;5026759;28;20458;-96
2022/06/30 03:49:38;;;;;;;8.27;4.25;;;;;;;18.84;62.45;99232.28;5062836;28;20028;-96
2022/06/30 03:52:05;;;;;;;8.18;4.07;;;;;;;18.67;62.50;99221.44;5027282;28;20024;-96
2022/06/30 03:54:30;;;;;;;10.68;4.70;;;;;;;18.71;62.74;99216.91;5026267;28;20398;-95
2022/06/30 03:56:57;;;;;;;9.25;4.47;;;;;;;18.86;62.57;99240.16;5043806;28;20025;-96
2022/06/30 03:59:28;;;;;;;12.75;4.10;;;;;;;18.86;62.05;99218.34;5045683;28;20025;-95
2022/06/30 04:01:55;;;;;;;10.82;4.88;;;;;;;18.94;61.68;99220.22;5045772;28;20092;-96
2022/06/30 04:04:23;;;;;;;12.13;5.05;;;;;;;18.98;61.67;99226.63;5059015;28;20106;-96
2022/06/30 04:06:52;;;;;;;8.55;4.10;;;;;;;18.98;61.49;99213.78;5040246;28;20045;-96
2022/06/30 04:09:39;;;;;;;9.25;4.57;;;;;;;19.09;62.88;99233.34;5042464;28;20059;-95
2022/06/30 04:12:06;;;;;;;12.35;4.93;;;;;;;19.08;61.92;99229.00;5063378;28;20036;-96
2022/06/30 04:14:32;;;;;;;12.27;4.50;;;;;;;19.05;62.15;99226.09;5031136;28;20056;-96
2022/06/30 04:16:59;;;;;;;18.60;5.50;;;;;;;19.04;62.81;99219.84;5029955;28;20039;-96
2022/06/30 04:19:24;;;;;;;12.48;4.82;;;;;;;19.20;62.49;99222.03;5048920;28;20063;-96
2022/06/30 04:21:56;;;;;;;11.93;5.07;;;;;;;19.31;62.19;99223.25;5053674;28;20021;-96
2022/06/30 04:24:22;;;;;;;12.65;4.85;;;;;;;19.54;61.64;99245.59;5033575;28;20057;-96
2022/06/30 04:26:59;;;;;;;16.67;5.10;;;;;;;19.73;60.88;99243.22;5038012;28;20097;-96
2022/06/30 04:29:38;;;;;;;11.82;4.57;;;;;;;19.75;60.61;99245.63;5112520;23;20053;-95
2022/06/30 04:32:39;;;;;;;8.63;4.80;;;;;;;19.71;59.88;99214.66;5050753;28;20041;-96
2022/06/30 04:35:06;;;;;;;;;;;;;;;19.93;59.38;99249.03;5043178;28;20040;-94
2022/06/30 04:37:31;;;;;;;10.90;4.22;;;;;;;19.82;58.62;99224.06;5023280;28;19915;-94
2022/06/30 04:42:41;;;;;;;14.75;4.65;;;;;;;20.12;56.56;99241.16;5042218;28;20481;-93
2022/06/30 04:45:07;;;;;;;7.25;4.60;;;;;;;20.28;56.73;99248.75;5005517;28;20025;-92
2022/06/30 04:47:36;;;;;;;9.02;3.80;;;;;;;20.35;55.55;99238.84;5005899;28;20028;-94
2022/06/30 04:50:07;;;;;;;32.97;6.38;;;;;;;20.51;55.43;99249.94;5005727;28;20074;-94
2022/06/30 04:52:33;;;;;;;9.02;4.57;;;;;;;20.53;55.54;99239.47;5006071;28;20505;-94
2022/06/30 04:55:00;;;;;;;8.75;4.40;;;;;;;20.56;55.95;99247.00;5006669;28;20028;-93
2022/06/30 04:57:26;;;;;;;8.60;4.03;;;;;;;20.72;56.49;99246.38;5022493;28;20061;-94
2022/06/30 04:59:51;;;;;;;11.23;4.30;;;;;;;20.70;56.70;99246.72;5007579;28;20021;-92
2022/06/30 05:02:17;;;;;;;12.10;5.18;;;;;;;20.76;55.67;99237.16;5004671;28;20039;-92
2022/06/30 05:04:43;;;;;;;14.13;4.50;;;;;;;20.82;54.79;99232.25;5023159;28;20032;-96
2022/06/30 05:07:09;;;;;;;7.53;4.57;;;;;;;20.90;54.80;99239.56;5009291;28;20020;-96
2022/06/30 05:09:34;;;;;;;10.60;4.03;;;;;;;21.08;55.63;99248.34;5006664;28;20027;-94
2022/06/30 05:12:00;;;;;;;12.63;4.88;;;;;;;21.18;55.24;99238.88;5006961;28;20025;-95
2022/06/30 05:14:26;;;;;;;13.40;5.75;;;;;;;21.18;55.40;99238.88;5010872;28;20561;-92
2022/06/30 05:16:51;;;;;;;8.55;4.22;;;;;;;21.42;54.53;99251.81;5006421;28;20468;-92
2022/06/30 05:19:17;;;;;;;7.95;4.15;;;;;;;21.55;51.22;99269.81;5051826;23;20069;-89
2022/06/30 05:21:42;;;;;;;12.77;5.78;;;;;;;21.62;52.20;99261.00;5035971;28;20505;-88
2022/06/30 05:26:52;;;;;;;9.13;5.05;;;;;;;21.67;52.23;99243.56;5034544;28;20098;-88
2022/06/30 05:29:17;;;;;;;9.48;4.30;;;;;;;21.80;52.35;99250.59;5006237;28;20116;-90
2022/06/30 05:31:43;;;;;;;11.23;5.72;;;;;;;21.98;52.37;99259.34;4999511;28;20076;-90
2022/06/30 05:34:11;;;;;;;12.65;4.28;;;;;;;21.95;53.40;99246.31;5012143;28;20148;-93
2022/06/30 05:36:43;;;;;;;16.33;4.68;;;;;;;22.17;52.08;99280.66;5027759;28;20025;-94
2022/06/30 05:39:27;;;;;;;18.33;4.20;;;;;;;22.16;51.83;99257.09;5039505;28;20021;-95
2022/06/30 05:41:55;;;;;;;10.35;4.32;;;;;;;22.16;50.97;99243.38;5025716;28;20407;-93
2022/06/30 05:44:21;;;;;;;11.07;4.13;;;;;;;22.30;52.61;99257.53;5021167;28;20030;-92
2022/06/30 05:46:46;;;;;;;9.77;4.07;;;;;;;22.30;51.87;99241.06;5037818;28;20116;-90
2022/06/30 05:49:12;;;;;;;6.43;4.03;;;;;;;22.56;51.33;99262.56;5018231;28;20076;-93
2022/06/30 05:51:38;;;;;;;13.50;3.92;;;;;;;22.58;51.29;99240.25;5017725;28;20125;-93
2022/06/30 05:54:03;;;;;;;12.18;4.90;;;;;;;22.72;50.98;99246.13;5032897;28;20077;-94
2022/06/30 05:56:32;;;;;;;15.40;5.30;;;;;;;22.80;50.30;99238.84;5020944;28;20083;-94
2022/06/30 05:59:05;;;;;;;12.00;4.70;;;;;;;22.94;50.28;99244.69;5020175;28;20031;-91
2022/06/30 06:01:36;;;;;;;12.30;5.22;;;;;;;23.17;50.21;99255.88;5023894;28;20055;-94
2022/06/30 06:04:07;;;;;;;16.98;6.80;;;;;;;23.27;49.53;99257.28;5021980;28;20182;-91
2022/06/30 06:06:32;;;;;;;13.10;5.00;;;;;;;23.32;48.78;99254.25;5021496;28;20467;-90
2022/06/30 06:09:04;;;;;;;9.80;5.25;;;;;;;23.39;49.60;99270.13;5021255;28;20036;-95
2022/06/30 06:11:33;;;;;;;14.13;4.60;;;;;;;23.36;49.89;99254.34;5023516;28;20025;-95
2022/06/30 06:13:59;;;;;;;9.50;5.30;;;;;;;23.55;49.29;99267.34;5021863;28;20113;-91
2022/06/30 06:16:27;;;;;;;31.60;20.50;;;;;;;23.62;48.40;99264.75;5021696;28;20115;-94
2022/06/30 06:18:53;;;;;;;16.42;6.80;;;;;;;23.66;47.51;99256.56;5022076;28;20049;-93
2022/06/30 06:38:57;;;;;;;17.42;6.63;;;;;;;24.70;46.46;99259.50;4978543;28;20050;-93
2022/06/30 06:59:26;;;;;;;12.55;6.93;;;;;;;25.54;44.74;99237.63;5038249;28;20511;-94
2022/06/30 07:01:51;;;;;;;15.38;10.75;;;;;;;25.69;43.60;99249.63;4984830;28;20017;-92
2022/06/30 07:23:11;;;;;;;10.10;4.47;;;;;;;26.71;41.79;99243.00;5712771;22;20267;-96
2022/06/30 07:37:47;;;;;;;;;;;;;;;27.52;39.45;99243.25;5004612;28;20041;-96
2022/06/30 07:40:58;;;;;;;13.02;6.80;;;;;;;27.51;39.24;99230.59;4986510;28;19957;-95
2022/06/30 07:43:34;;;;;;;13.82;4.20;;;;;;;27.60;38.66;99225.47;4999982;28;20035;-94
2022/06/30 07:46:00;;;;;;;10.82;4.82;;;;;;;27.68;38.30;99220.78;4985734;28;20045;-94
2022/06/30 07:55:05;;;;;;;8.85;3.80;;;;;;;28.10;36.06;99236.00;4977508;28;20532;-93
2022/06/30 07:57:33;;;;;;;9.85;3.75;;;;;;;28.21;35.26;99229.34;4979663;28;20038;-94
2022/06/30 08:00:13;;;;;;;5.57;4.00;;;;;;;28.31;36.70;99227.00;4992066;28;20030;-96
2022/06/30 08:02:58;;;;;;;10.25;4.28;;;;;;;28.44;36.01;99230.19;5011549;28;20450;-94
2022/06/30 08:08:46;;;;;;;7.82;3.80;;;;;;;28.80;33.35;99231.84;5039053;28;20043;-94
2022/06/30 08:14:54;;;;;;;7.18;4.20;;;;;;;28.92;33.47;99222.34;5039497;28;20052;-94
2022/06/30 08:17:44;;;;;;;9.70;4.50;;;;;;;29.07;33.29;99225.88;4999027;28;20037;-94
2022/06/30 08:30:27;;;;;;;13.40;3.95;;;;;;;29.64;31.58;99225.03;4898483;29;20590;-93
2022/06/30 08:32:55;;;;;;;6.72;3.70;;;;;;;29.73;31.57;99222.63;4891292;29;20493;-94
2022/06/30 08:35:43;;;;;;;5.88;2.83;;;;;;;29.80;27.81;99230.94;4957942;28;20050;-94
2022/06/30 08:38:09;;;;;;;9.25;4.82;;;;;;;29.92;28.48;99238.03;4968844;28;20034;-95
2022/06/30 08:43:48;;;;;;;7.53;3.30;;;;;;;30.00;26.66;99231.25;4969414;28;20038;-95
2022/06/30 08:46:16;;;;;;;4.95;2.97;;;;;;;30.10;26.55;99226.84;4966984;28;20030;-94
2022/06/30 08:48:42;;;;;;;12.30;5.13;;;;;;;30.23;26.28;99233.50;4966975;28;20027;-94
2022/06/30 08:51:13;;;;;;;8.60;3.13;;;;;;;30.30;26.42;99234.69;4966505;28;20030;-94
2022/06/30 08:53:58;;;;;;;9.50;3.17;;;;;;;30.27;27.54;99229.94;4986966;28;20155;-95
2022/06/30 08:56:24;;;;;;;9.63;3.83;;;;;;;30.30;25.72;99224.41;5005267;28;20037;-94
2022/06/30 08:58:54;;;;;;;4.75;2.70;;;;;;;30.46;25.37;99245.31;4985807;28;20025;-95
2022/06/30 09:01:20;;;;;;;3.88;2.30;;;;;;;30.46;26.11;99239.78;4988523;28;20046;-96
2022/06/30 09:04:07;;;;;;;4.53;2.65;;;;;;;30.48;27.11;99234.59;5006129;28;20075;-96
2022/06/30 09:07:03;;;;;;;3.83;2.58;;;;;;;30.40;26.25;99223.53;5037617;28;20119;-96
2022/06/30 09:10:26;;;;;;;3.28;2.13;;;;;;;30.53;26.42;99239.75;5007108;28;20048;-94
2022/06/30 09:16:17;;;;;;;3.15;1.98;;;;;;;30.38;26.66;99217.59;4922188;29;20066;-94
2022/06/30 09:18:52;;;;;;;6.38;4.13;;;;;;;30.47;26.83;99211.59;4911206;29;20043;-91
2022/06/30 09:21:19;;;;;;;6.57;2.70;;;;;;;30.56;27.18;99209.13;4958313;28;20046;-92
2022/06/30 09:23:53;;;;;;;7.68;2.45;;;;;;;30.65;26.63;99219.78;4997458;28;20040;-92
2022/06/30 09:26:20;;;;;;;6.03;2.50;;;;;;;30.59;26.87;99210.31;4997210;28;20034;-92
2022/06/30 09:28:51;;;;;;;5.97;2.30;;;;;;;30.64;26.35;99200.75;4978208;28;20045;-92
2022/06/30 09:32:15;;;;;;;6.90;2.17;;;;;;;30.85;26.76;99230.38;4972803;28;20520;-92
2022/06/30 09:34:43;;;;;;;5.07;1.83;;;;;;;30.80;25.83;99207.38;4970476;28;20117;-92
2022/06/30 09:37:36;;;;;;;9.90;2.22;;;;;;;30.95;26.23;99221.19;4976772;28;20085;-95
2022/06/30 09:40:01;;;;;;;4.40;1.95;;;;;;;31.02;26.34;99216.34;4974723;28;20031;-92
2022/06/30 09:42:40;;;;;;;3.88;2.00;;;;;;;31.20;25.98;99232.84;4960389;28;20038;-91
2022/06/30 09:45:08;;;;;;;6.38;1.73;;;;;;;31.17;25.25;99214.22;4942416;28;20129;-92
2022/06/30 09:47:34;;;;;;;5.60;1.50;;;;;;;31.01;25.35;99198.06;4987455;28;20033;-92
2022/06/30 09:50:44;;;;;;;5.25;3.15;;;;;;;31.15;25.52;99201.91;4965818;28;20028;-94
2022/06/30 09:53:23;;;;;;;6.90;2.57;;;;;;;31.35;26.24;99218.81;5007005;28;20045;-95
2022/06/30 09:55:54;;;;;;;6.35;2.22;;;;;;;31.23;25.33;99200.63;5030170;28;20113;-91
2022/06/30 09:58:31;;;;;;;9.52;2.50;;;;;;;31.30;25.90;99222.06;4980083;28;20026;-92
2022/06/30 10:00:58;;;;;;;9.57;3.22;;;;;;;31.20;26.12;99195.91;5000974;28;20088;-92
2022/06/30 10:03:33;;;;;;;6.30;2.10;;;;;;;31.29;26.83;99203.75;4988500;28;20050;-90
2022/06/30 10:06:17;;;;;;;10.02;2.10;;;;;;;31.40;26.90;99215.59;4995055;28;20029;-92
2022/06/30 10:12:27;;;;;;;6.03;1.80;;;;;;;31.51;25.60;99212.72;4955976;29;20034;-94
2022/06/30 10:14:59;;;;;;;6.13;2.00;;;;;;;31.53;26.39;99210.31;4947850;28;20029;-95
2022/06/30 10:17:34;;;;;;;6.18;2.25;;;;;;;31.52;26.34;99186.44;4981474;28;20033;-93
2022/06/30 10:19:59;;;;;;;7.63;1.55;;;;;;;31.52;26.29;99180.88;4989498;28;20026;-92
2022/06/30 10:22:26;;;;;;;3.67;1.42;;;;;;;31.54;26.57;99190.38;4970018;28;20105;-93
2022/06/30 10:24:53;;;;;;;7.43;1.73;;;;;;;31.51;27.08;99176.53;4982636;28;20608;-92
2022/06/30 10:27:20;;;;;;;3.53;1.60;;;;;;;31.60;27.07;99182.38;4970324;28;20034;-93
2022/06/30 10:30:06;;;;;;;4.53;1.40;;;;;;;31.73;26.29;99182.63;4971921;28;20024;-93
2022/06/30 10:33:05;;;;;;;7.07;1.48;;;;;;;31.86;26.25;99194.00;5004739;28;20045;-94
2022/06/30 10:38:27;;;;;;;3.30;1.45;;;;;;;31.94;26.05;99196.28;5777887;23;20063;-95
2022/06/30 10:41:12;;;;;;;5.00;1.55;;;;;;;31.91;26.69;99188.75;5050508;28;20040;-96
2022/06/30 10:44:23;;;;;;;3.72;1.67;;;;;;;31.68;26.24;99156.03;5047790;28;20031;-96
2022/06/30 10:46:55;;;;;;;4.27;1.67;;;;;;;31.85;25.81;99181.28;4954226;28;20027;-95
2022/06/30 10:49:22;;;;;;;7.68;3.10;;;;;;;31.76;26.72;99162.31;4987743;28;20278;-96
2022/06/30 10:52:16;;;;;;;7.40;3.40;;;;;;;31.77;27.33;99149.94;5011219;28;20071;-96
2022/06/30 10:54:45;;;;;;;5.57;1.92;;;;;;;31.85;26.96;99159.78;5060170;28;20104;-95
2022/06/30 10:57:16;;;;;;;10.88;5.22;;;;;;;31.84;27.96;99143.50;5035707;28;20071;-96
2022/06/30 11:04:48;;;;;;;6.00;2.20;;;;;;;32.01;27.19;99159.22;5047137;28;20072;-91
2022/06/30 11:07:21;;;;;;;4.43;2.22;;;;;;;31.97;27.21;99150.88;5007686;28;20091;-89
2022/06/30 11:09:54;;;;;;;7.90;2.58;;;;;;;32.10;27.10;99165.03;5005614;28;20021;-92
2022/06/30 11:12:29;;;;;;;11.43;3.00;;;;;;;32.19;26.76;99159.75;5058613;28;20025;-91
2022/06/30 11:15:10;;;;;;;4.65;1.50;;;;;;;32.03;26.60;99154.00;5042227;28;20048;-92
2022/06/30 11:18:20;;;;;;;14.57;3.20;;;;;;;32.13;27.29;99135.56;5019370;28;20095;-94
2022/06/30 11:24:08;;;;;;;7.65;2.00;;;;;;;32.36;27.18;99135.59;5044840;28;20079;-92
2022/06/30 11:29:19;;;;;;;2.53;1.63;;;;;;;32.26;26.82;99139.34;5025618;28;20059;-92
2022/06/30 11:31:50;;;;;;;9.05;2.28;;;;;;;32.38;26.82;99138.75;5029635;28;20047;-94
2022/06/30 11:34:27;;;;;;;3.83;1.67;;;;;;;32.33;27.13;99136.44;5008418;28;20498;-95
2022/06/30 11:37:19;;;;;;;4.47;1.73;;;;;;;32.38;27.12;99126.81;5013758;28;20411;-95
2022/06/30 11:39:44;;;;;;;9.10;1.77;;;;;;;32.48;26.60;99133.41;5002323;28;20094;-92
2022/06/30 11:42:11;;;;;;;11.55;2.85;;;;;;;32.42;26.82;99133.91;5006828;28;20044;-92
2022/06/30 11:44:52;;;;;;;3.13;1.40;;;;;;;32.48;26.75;99117.50;5012785;28;20017;-94
2022/06/30 11:47:54;;;;;;;5.85;2.83;;;;;;;32.56;26.44;99129.31;5061261;28;20032;-95
2022/06/30 11:50:21;;;;;;;6.60;2.30;;;;;;;32.68;26.13;99128.72;5002934;28;20136;-94
2022/06/30 11:52:47;;;;;;;5.63;2.47;;;;;;;32.71;25.21;99133.47;4987425;28;20100;-93
2022/06/30 11:55:37;;;;;;;;;;;;;;;;;;;;;
2022/06/30 11:58:03;;;;;;;5.68;1.75;;;;;;;32.77;25.17;99126.19;4989115;28;20034;-94
2022/06/30 12:00:49;;;;;;;4.25;1.42;;;;;;;32.66;24.75;99122.00;5000280;28;20112;-95
2022/06/30 12:03:17;;;;;;;7.97;1.83;;;;;;;32.84;25.32;99130.06;4991646;28;20046;-94
2022/06/30 12:05:56;;;;;;;7.65;1.77;;;;;;;32.85;25.61;99121.25;5018258;28;20033;-96
2022/06/30 12:08:33;;;;;;;5.40;2.10;;;;;;;32.81;25.75;99107.38;5008069;28;20021;-96
2022/06/30 12:11:01;;;;;;;4.57;1.70;;;;;;;32.91;25.86;99102.03;4989280;28;20033;-94
2022/06/30 12:13:30;;;;;;;9.27;1.60;;;;;;;33.00;25.86;99108.63;4988527;28;20022;-94
2022/06/30 12:15:55;;;;;;;3.22;1.85;;;;;;;33.18;25.99;99116.69;4987542;28;20038;-94
2022/06/30 12:22:18;;;;;;;5.05;1.70;;;;;;;33.37;24.52;99120.69;4962306;29;20035;-94
2022/06/30 12:32:16;;;;;;;4.63;1.60;;;;;;;33.72;24.17;99106.41;4931210;29;20060;-95
2022/06/30 12:35:05;;;;;;;3.75;1.45;;;;;;;33.77;24.16;99100.34;4923733;29;20044;-95
2022/06/30 12:41:06;;;;;;;6.45;1.73;;;;;;;33.74;23.33;99088.00;4922446;29;20101;-95
2022/06/30 12:44:43;;;;;;;;;;;;;;;;;;;;;
2022/06/30 12:47:28;;;;;;;4.13;1.65;;;;;;;33.88;23.46;99086.13;4930213;29;20096;-96
2022/06/30 12:50:46;;;;;;;4.53;1.73;;;;;;;34.08;23.95;99091.66;4908164;29;20115;-95
2022/06/30 12:54:30;;;;;;;;;;;;;;;;;;;;;
2022/06/30 12:57:11;;;;;;;10.45;2.10;;;;;;;34.40;23.06;99083.28;4980330;28;20117;-95
2022/06/30 12:59:50;;;;;;;4.72;1.90;;;;;;;34.41;23.38;99059.69;4989163;28;20116;-92
2022/06/30 13:02:19;;;;;;;7.32;1.70;;;;;;;34.54;23.21;99061.78;4986978;28;20549;-93
2022/06/30 13:04:52;;;;;;;6.07;1.60;;;;;;;34.55;23.31;99061.34;4985083;28;20118;-92
2022/06/30 13:07:21;;;;;;;4.82;1.58;;;;;;;34.68;22.88;99069.81;4984245;28;20045;-92
2022/06/30 13:09:48;;;;;;;8.68;1.92;;;;;;;34.87;23.82;99072.94;4984363;28;20198;-92
2022/06/30 13:12:17;;;;;;;6.22;2.30;;;;;;;35.10;23.72;99066.28;5001407;28;20056;-93
2022/06/30 13:14:42;;;;;;;7.15;2.40;;;;;;;35.23;23.83;99055.94;5002165;28;20068;-92
2022/06/30 13:17:08;;;;;;;12.00;2.45;;;;;;;35.47;23.77;99050.00;4985003;28;20029;-91
2022/06/30 13:19:36;;;;;;;6.40;2.50;;;;;;;35.69;22.37;99050.19;4983630;28;20037;-93
2022/06/30 13:22:02;;;;;;;11.23;2.33;;;;;;;35.68;22.80;99045.81;4984532;28;20029;-93
2022/06/30 13:25:04;;;;;;;5.65;1.98;;;;;;;35.97;22.83;99054.88;4986149;28;20494;-96
2022/06/30 13:28:19;;;;;;;7.15;1.65;;;;;;;35.89;21.90;99044.34;4996601;28;20060;-96
2022/06/30 13:30:45;;;;;;;4.95;2.05;;;;;;;35.91;21.77;99044.69;5049424;28;20044;-94
2022/06/30 13:33:12;;;;;;;6.32;1.55;;;;;;;35.48;21.75;99048.81;5013669;28;20043;-94
2022/06/30 13:36:06;;;;;;;4.63;1.38;;;;;;;35.96;21.87;99036.50;5011244;28;20041;-95
2022/06/30 13:38:41;;;;;;;6.03;1.85;;;;;;;36.40;20.82;99044.28;5029793;28;20081;-95
2022/06/30 13:41:09;;;;;;;4.97;1.45;;;;;;;36.79;20.22;99051.34;5011333;28;20037;-95
2022/06/30 13:43:35;;;;;;;3.80;1.70;;;;;;;37.11;20.35;99051.47;5008579;28;20047;-94
2022/06/30 13:46:00;;;;;;;8.95;4.63;;;;;;;37.52;19.46;99050.28;5025916;28;20462;-95
2022/06/30 13:48:26;;;;;;;9.65;2.72;;;;;;;37.98;20.39;99061.72;5011309;28;20061;-92
2022/06/30 13:53:27;;;;;;;6.68;1.63;;;;;;;38.55;17.79;99040.94;5084796;23;20045;-92
2022/06/30 13:55:53;;;;;;;3.92;1.50;;;;;;;38.85;18.64;99049.66;5042149;28;20501;-91
2022/06/30 13:58:24;;;;;;;5.20;1.70;;;;;;;39.11;19.67;99041.69;5044145;28;20047;-91
2022/06/30 14:00:50;;;;;;;7.72;1.60;;;;;;;38.84;19.32;99042.50;5023228;28;20021;-92
2022/06/30 14:03:15;;;;;;;7.13;1.70;;;;;;;39.27;19.30;99038.53;5015167;28;20036;-92
2022/06/30 14:05:42;;;;;;;6.90;3.63;;;;;;;39.58;18.40;99043.94;5036134;28;20497;-91
2022/06/30 14:08:08;;;;;;;8.57;2.28;;;;;;;39.70;17.91;99025.25;5040050;28;20486;-92
2022/06/30 14:10:41;;;;;;;5.90;1.58;;;;;;;39.85;17.48;99028.19;5027406;28;20165;-93
2022/06/30 14:13:06;;;;;;;10.00;1.75;;;;;;;40.10;16.53;99023.34;5052552;28;20033;-91
2022/06/30 14:15:32;;;;;;;4.38;1.35;;;;;;;40.40;17.30;99044.75;5067044;28;20110;-92
2022/06/30 14:17:58;;;;;;;5.38;3.63;;;;;;;40.28;17.49;99022.41;5019328;28;20032;-91
2022/06/30 14:20:24;;;;;;;8.35;1.70;;;;;;;40.45;17.35;99040.50;5024889;28;20020;-93